sensor_id;sensor_type;location;lat;lon;timestamp;pressure;altitude;pressure_sealevel;temperature;humidity
55590;BME280;41452;42.780;23.116;2023-05-12T00:02:13;94578.72;;;7.08;100.00
55590;BME280;41452;42.780;23.116;2023-05-12T00:04:39;94585.34;;;7.17;100.00
55590;BME280;41452;42.780;23.116;2023-05-12T00:07:04;94594.00;;;7.18;100.00
55590;BME280;41452;42.780;23.116;2023-05-12T00:09:31;94600.00;;;7.25;100.00
55590;BME280;41452;42.780;23.116;2023-05-12T00:11:57;94562.66;;;6.98;100.00
55590;BME280;41452;42.780;23.116;2023-05-12T00:14:22;94591.00;;;7.14;100.00
55590;BME280;41452;42.780;23.116;2023-05-12T00:16:47;94588.34;;;7.21;100.00
55590;BME280;41452;42.780;23.116;2023-05-12T00:19:19;94593.16;;;7.17;100.00
55590;BME280;41452;42.780;23.116;2023-05-12T00:21:45;94571.09;;;7.00;100.00
55590;BME280;41452;42.780;23.116;2023-05-12T00:24:10;94583.16;;;7.01;100.00
55590;BME280;41452;42.780;23.116;2023-05-12T00:26:35;94598.59;;;7.16;100.00
55590;BME280;41452;42.780;23.116;2023-05-12T00:29:01;94594.59;;;7.13;100.00
55590;BME280;41452;42.780;23.116;2023-05-12T00:31:28;94594.59;;;7.13;100.00
55590;BME280;41452;42.780;23.116;2023-05-12T00:33:53;94599.22;;;7.11;100.00
55590;BME280;41452;42.780;23.116;2023-05-12T00:36:18;94594.19;;;7.03;100.00
55590;BME280;41452;42.780;23.116;2023-05-12T00:38:44;94582.94;;;6.96;100.00
55590;BME280;41452;42.780;23.116;2023-05-12T00:41:09;94601.81;;;7.11;100.00
55590;BME280;41452;42.780;23.116;2023-05-12T00:43:35;94599.03;;;7.13;100.00
55590;BME280;41452;42.780;23.116;2023-05-12T00:46:03;94601.81;;;7.11;100.00
55590;BME280;41452;42.780;23.116;2023-05-12T00:48:30;94608.66;;;7.19;100.00
55590;BME280;41452;42.780;23.116;2023-05-12T00:50:56;94611.25;;;7.12;100.00
55590;BME280;41452;42.780;23.116;2023-05-12T00:53:23;94614.69;;;7.06;100.00
55590;BME280;41452;42.780;23.116;2023-05-12T00:55:48;94607.88;;;6.98;100.00
55590;BME280;41452;42.780;23.116;2023-05-12T00:58:14;94610.25;;;7.00;100.00
55590;BME280;41452;42.780;23.116;2023-05-12T01:00:39;94598.19;;;6.85;100.00
55590;BME280;41452;42.780;23.116;2023-05-12T01:03:05;94611.06;;;6.87;100.00
55590;BME280;41452;42.780;23.116;2023-05-12T01:05:35;94613.06;;;6.85;100.00
55590;BME280;41452;42.780;23.116;2023-05-12T01:08:04;94589.38;;;6.60;100.00
55590;BME280;41452;42.780;23.116;2023-05-12T01:10:30;94597.41;;;6.65;100.00
55590;BME280;41452;42.780;23.116;2023-05-12T01:12:55;94596.81;;;6.63;100.00
55590;BME280;41452;42.780;23.116;2023-05-12T01:15:21;94614.84;;;6.71;100.00
55590;BME280;41452;42.780;23.116;2023-05-12T01:17:52;94586.53;;;6.55;100.00
55590;BME280;41452;42.780;23.116;2023-05-12T01:20:21;94612.25;;;6.64;100.00
55590;BME280;41452;42.780;23.116;2023-05-12T01:22:48;94613.06;;;6.65;100.00
55590;BME280;41452;42.780;23.116;2023-05-12T01:25:14;94600.19;;;6.57;100.00
55590;BME280;41452;42.780;23.116;2023-05-12T01:27:41;94612.66;;;6.68;100.00
55590;BME280;41452;42.780;23.116;2023-05-12T01:30:08;94617.25;;;6.66;100.00
55590;BME280;41452;42.780;23.116;2023-05-12T01:32:35;94594.34;;;6.48;100.00
55590;BME280;41452;42.780;23.116;2023-05-12T01:35:02;94612.03;;;6.66;100.00
55590;BME280;41452;42.780;23.116;2023-05-12T01:37:28;94592.56;;;6.49;100.00
55590;BME280;41452;42.780;23.116;2023-05-12T01:39:53;94618.25;;;6.58;100.00
55590;BME280;41452;42.780;23.116;2023-05-12T01:42:18;94620.28;;;6.56;100.00
55590;BME280;41452;42.780;23.116;2023-05-12T01:44:44;94611.44;;;6.51;100.00
55590;BME280;41452;42.780;23.116;2023-05-12T01:47:09;94619.06;;;6.52;100.00
55590;BME280;41452;42.780;23.116;2023-05-12T01:49:38;94607.41;;;6.41;100.00
55590;BME280;41452;42.780;23.116;2023-05-12T01:52:04;94608.78;;;6.37;100.00
55590;BME280;41452;42.780;23.116;2023-05-12T01:54:29;94601.94;;;6.23;100.00
55590;BME280;41452;42.780;23.116;2023-05-12T01:56:55;94615.41;;;6.33;100.00
55590;BME280;41452;42.780;23.116;2023-05-12T01:59:20;94592.69;;;6.14;100.00
55590;BME280;41452;42.780;23.116;2023-05-12T02:01:46;94592.50;;;6.15;100.00
55590;BME280;41452;42.780;23.116;2023-05-12T02:04:11;94569.91;;;5.87;100.00
55590;BME280;41452;42.780;23.116;2023-05-12T02:06:36;94598.47;;;6.02;100.00
55590;BME280;41452;42.780;23.116;2023-05-12T02:09:02;94602.84;;;6.02;100.00
55590;BME280;41452;42.780;23.116;2023-05-12T02:11:27;94604.44;;;5.96;100.00
55590;BME280;41452;42.780;23.116;2023-05-12T02:13:53;94605.47;;;6.02;100.00
55590;BME280;41452;42.780;23.116;2023-05-12T02:16:18;94606.88;;;5.98;100.00
55590;BME280;41452;42.780;23.116;2023-05-12T02:18:44;94611.63;;;5.94;100.00
55590;BME280;41452;42.780;23.116;2023-05-12T02:21:09;94608.00;;;5.88;100.00
55590;BME280;41452;42.780;23.116;2023-05-12T02:23:35;94601.38;;;5.86;100.00
55590;BME280;41452;42.780;23.116;2023-05-12T02:26:00;94589.88;;;5.67;100.00
55590;BME280;41452;42.780;23.116;2023-05-12T02:28:25;94589.47;;;5.70;100.00
55590;BME280;41452;42.780;23.116;2023-05-12T02:30:51;94608.34;;;5.79;100.00
55590;BME280;41452;42.780;23.116;2023-05-12T02:33:18;94607.94;;;5.75;100.00
55590;BME280;41452;42.780;23.116;2023-05-12T02:35:44;94589.47;;;5.63;100.00
55590;BME280;41452;42.780;23.116;2023-05-12T02:38:10;94614.81;;;5.83;100.00
55590;BME280;41452;42.780;23.116;2023-05-12T02:40:36;94591.66;;;5.66;100.00
55590;BME280;41452;42.780;23.116;2023-05-12T02:43:01;94608.75;;;5.76;100.00
55590;BME280;41452;42.780;23.116;2023-05-12T02:45:27;94617.38;;;5.76;100.00
55590;BME280;41452;42.780;23.116;2023-05-12T02:47:52;94596.25;;;5.64;100.00
55590;BME280;41452;42.780;23.116;2023-05-12T02:50:17;94615.94;;;5.74;100.00
55590;BME280;41452;42.780;23.116;2023-05-12T02:52:44;94610.31;;;5.63;100.00
55590;BME280;41452;42.780;23.116;2023-05-12T02:55:09;94578.69;;;5.38;100.00
55590;BME280;41452;42.780;23.116;2023-05-12T02:57:35;94616.88;;;5.59;100.00
55590;BME280;41452;42.780;23.116;2023-05-12T03:00:02;94605.47;;;5.60;100.00
55590;BME280;41452;42.780;23.116;2023-05-12T03:02:30;94594.97;;;5.47;100.00
55590;BME280;41452;42.780;23.116;2023-05-12T03:04:55;94586.16;;;5.48;100.00
55590;BME280;41452;42.780;23.116;2023-05-12T03:07:20;94599.78;;;5.50;100.00
55590;BME280;41452;42.780;23.116;2023-05-12T03:09:46;94614.50;;;5.64;100.00
55590;BME280;41452;42.780;23.116;2023-05-12T03:12:12;94597.41;;;5.55;100.00
55590;BME280;41452;42.780;23.116;2023-05-12T03:14:37;94621.56;;;5.70;100.00
55590;BME280;41452;42.780;23.116;2023-05-12T03:17:03;94627.00;;;5.76;100.00
55590;BME280;41452;42.780;23.116;2023-05-12T03:19:28;94631.34;;;5.68;100.00
55590;BME280;41452;42.780;23.116;2023-05-12T03:21:54;94629.94;;;5.66;100.00
55590;BME280;41452;42.780;23.116;2023-05-12T03:24:19;94629.59;;;5.76;100.00
55590;BME280;41452;42.780;23.116;2023-05-12T03:26:44;94586.78;;;5.50;100.00
55590;BME280;41452;42.780;23.116;2023-05-12T03:29:10;94629.47;;;5.90;100.00
55590;BME280;41452;42.780;23.116;2023-05-12T03:31:35;94632.44;;;5.87;100.00
55590;BME280;41452;42.780;23.116;2023-05-12T03:34:01;94631.66;;;5.87;100.00
55590;BME280;41452;42.780;23.116;2023-05-12T03:36:26;94614.59;;;5.78;100.00
55590;BME280;41452;42.780;23.116;2023-05-12T03:38:52;94621.56;;;5.77;100.00
55590;BME280;41452;42.780;23.116;2023-05-12T03:41:17;94613.09;;;5.68;100.00
55590;BME280;41452;42.780;23.116;2023-05-12T03:43:42;94640.84;;;5.76;100.00
55590;BME280;41452;42.780;23.116;2023-05-12T03:46:08;94637.81;;;5.72;100.00
55590;BME280;41452;42.780;23.116;2023-05-12T03:48:33;94604.44;;;5.55;100.00
55590;BME280;41452;42.780;23.116;2023-05-12T03:50:58;94625.94;;;5.63;100.00
55590;BME280;41452;42.780;23.116;2023-05-12T03:53:24;94640.41;;;5.72;100.00
55590;BME280;41452;42.780;23.116;2023-05-12T03:55:49;94632.59;;;5.72;100.00
55590;BME280;41452;42.780;23.116;2023-05-12T03:58:15;94616.34;;;5.70;100.00
55590;BME280;41452;42.780;23.116;2023-05-12T04:00:41;94627.81;;;5.76;100.00
55590;BME280;41452;42.780;23.116;2023-05-12T04:03:06;94631.06;;;5.85;100.00
55590;BME280;41452;42.780;23.116;2023-05-12T04:05:32;94641.28;;;5.86;100.00
55590;BME280;41452;42.780;23.116;2023-05-12T04:07:57;94642.88;;;5.87;100.00
55590;BME280;41452;42.780;23.116;2023-05-12T04:10:22;94647.91;;;5.89;100.00
55590;BME280;41452;42.780;23.116;2023-05-12T04:12:48;94631.56;;;5.67;100.00
55590;BME280;41452;42.780;23.116;2023-05-12T04:15:13;94631.63;;;5.80;100.00
55590;BME280;41452;42.780;23.116;2023-05-12T04:17:39;94649.56;;;5.97;100.00
55590;BME280;41452;42.780;23.116;2023-05-12T04:20:06;94650.56;;;5.96;100.00
55590;BME280;41452;42.780;23.116;2023-05-12T04:22:31;94651.00;;;5.99;100.00
55590;BME280;41452;42.780;23.116;2023-05-12T04:24:57;94653.59;;;5.99;100.00
55590;BME280;41452;42.780;23.116;2023-05-12T04:27:22;94598.91;;;5.71;100.00
55590;BME280;41452;42.780;23.116;2023-05-12T04:29:47;94652.59;;;6.00;100.00
55590;BME280;41452;42.780;23.116;2023-05-12T04:32:13;94638.03;;;5.84;100.00
55590;BME280;41452;42.780;23.116;2023-05-12T04:34:38;94653.00;;;5.97;100.00
55590;BME280;41452;42.780;23.116;2023-05-12T04:37:04;94650.13;;;5.92;100.00
55590;BME280;41452;42.780;23.116;2023-05-12T04:39:29;94632.38;;;5.67;100.00
55590;BME280;41452;42.780;23.116;2023-05-12T04:41:55;94661.88;;;5.75;100.00
55590;BME280;41452;42.780;23.116;2023-05-12T04:44:20;94631.75;;;5.65;100.00
55590;BME280;41452;42.780;23.116;2023-05-12T04:46:46;94635.53;;;5.63;100.00
55590;BME280;41452;42.780;23.116;2023-05-12T04:49:12;94631.75;;;5.65;100.00
55590;BME280;41452;42.780;23.116;2023-05-12T04:51:37;94655.88;;;5.81;100.00
55590;BME280;41452;42.780;23.116;2023-05-12T04:54:08;94661.31;;;5.79;100.00
55590;BME280;41452;42.780;23.116;2023-05-12T04:56:34;94644.19;;;5.63;100.00
55590;BME280;41452;42.780;23.116;2023-05-12T04:59:00;94625.94;;;5.63;100.00
55590;BME280;41452;42.780;23.116;2023-05-12T05:01:25;94641.03;;;5.75;100.00
55590;BME280;41452;42.780;23.116;2023-05-12T05:03:50;94653.72;;;5.91;100.00
55590;BME280;41452;42.780;23.116;2023-05-12T05:06:16;94650.38;;;5.97;100.00
55590;BME280;41452;42.780;23.116;2023-05-12T05:08:41;94593.44;;;5.59;100.00
55590;BME280;41452;42.780;23.116;2023-05-12T05:11:07;94656.22;;;5.99;100.00
55590;BME280;41452;42.780;23.116;2023-05-12T05:13:32;94637.09;;;5.92;100.00
55590;BME280;41452;42.780;23.116;2023-05-12T05:15:58;94651.81;;;6.06;100.00
55590;BME280;41452;42.780;23.116;2023-05-12T05:18:23;94637.69;;;5.94;100.00
55590;BME280;41452;42.780;23.116;2023-05-12T05:20:49;94661.88;;;6.09;100.00
55590;BME280;41452;42.780;23.116;2023-05-12T05:23:14;94662.88;;;6.08;100.00
55590;BME280;41452;42.780;23.116;2023-05-12T05:25:39;94640.16;;;5.96;100.00
55590;BME280;41452;42.780;23.116;2023-05-12T05:28:05;94668.97;;;5.94;100.00
55590;BME280;41452;42.780;23.116;2023-05-12T05:30:30;94656.41;;;5.98;100.00
55590;BME280;41452;42.780;23.116;2023-05-12T05:32:56;94659.03;;;6.04;100.00
55590;BME280;41452;42.780;23.116;2023-05-12T05:35:21;94672.22;;;5.96;100.00
55590;BME280;41452;42.780;23.116;2023-05-12T05:37:47;94652.09;;;5.83;100.00
55590;BME280;41452;42.780;23.116;2023-05-12T05:40:12;94662.22;;;6.00;100.00
55590;BME280;41452;42.780;23.116;2023-05-12T05:42:37;94661.63;;;5.98;100.00
55590;BME280;41452;42.780;23.116;2023-05-12T05:45:03;94639.72;;;5.92;100.00
55590;BME280;41452;42.780;23.116;2023-05-12T05:47:29;94661.66;;;6.04;100.00
55590;BME280;41452;42.780;23.116;2023-05-12T05:49:55;94665.84;;;6.05;100.00
55590;BME280;41452;42.780;23.116;2023-05-12T05:52:21;94667.66;;;6.05;100.00
55590;BME280;41452;42.780;23.116;2023-05-12T05:54:48;94629.63;;;5.82;100.00
55590;BME280;41452;42.780;23.116;2023-05-12T05:57:14;94670.69;;;6.08;100.00
55590;BME280;41452;42.780;23.116;2023-05-12T05:59:39;94674.50;;;6.06;100.00
55590;BME280;41452;42.780;23.116;2023-05-12T06:02:05;94675.47;;;6.05;100.00
55590;BME280;41452;42.780;23.116;2023-05-12T06:04:30;94645.09;;;5.90;100.00
55590;BME280;41452;42.780;23.116;2023-05-12T06:06:56;94667.81;;;5.97;100.00
55590;BME280;41452;42.780;23.116;2023-05-12T06:09:21;94671.84;;;5.99;100.00
55590;BME280;41452;42.780;23.116;2023-05-12T06:11:47;94678.88;;;5.99;100.00
55590;BME280;41452;42.780;23.116;2023-05-12T06:14:12;94693.16;;;6.09;100.00
55590;BME280;41452;42.780;23.116;2023-05-12T06:16:38;94686.53;;;6.07;100.00
55590;BME280;41452;42.780;23.116;2023-05-12T06:19:03;94693.53;;;6.06;100.00
55590;BME280;41452;42.780;23.116;2023-05-12T06:21:29;94687.50;;;5.99;100.00
55590;BME280;41452;42.780;23.116;2023-05-12T06:23:54;94696.75;;;6.08;100.00
55590;BME280;41452;42.780;23.116;2023-05-12T06:26:20;94691.41;;;6.17;100.00
55590;BME280;41452;42.780;23.116;2023-05-12T06:28:46;94689.38;;;6.19;100.00
55590;BME280;41452;42.780;23.116;2023-05-12T06:31:12;94661.84;;;6.03;100.00
55590;BME280;41452;42.780;23.116;2023-05-12T06:33:37;94696.84;;;6.22;100.00
55590;BME280;41452;42.780;23.116;2023-05-12T06:36:03;94688.38;;;6.20;100.00
55590;BME280;41452;42.780;23.116;2023-05-12T06:38:28;94704.84;;;6.20;100.00
55590;BME280;41452;42.780;23.116;2023-05-12T06:40:53;94699.44;;;6.22;100.00
55590;BME280;41452;42.780;23.116;2023-05-12T06:43:19;94689.19;;;6.27;100.00
55590;BME280;41452;42.780;23.116;2023-05-12T06:45:44;94673.13;;;6.17;100.00
55590;BME280;41452;42.780;23.116;2023-05-12T06:48:10;94691.22;;;6.25;100.00
55590;BME280;41452;42.780;23.116;2023-05-12T06:50:36;94693.66;;;6.33;100.00
55590;BME280;41452;42.780;23.116;2023-05-12T06:53:01;94704.53;;;6.43;100.00
55590;BME280;41452;42.780;23.116;2023-05-12T06:55:27;94701.31;;;6.48;100.00
55590;BME280;41452;42.780;23.116;2023-05-12T06:57:52;94704.94;;;6.47;100.00
55590;BME280;41452;42.780;23.116;2023-05-12T07:00:22;94682.00;;;6.36;100.00
55590;BME280;41452;42.780;23.116;2023-05-12T07:02:48;94683.59;;;6.30;100.00
55590;BME280;41452;42.780;23.116;2023-05-12T07:05:13;94699.13;;;6.45;100.00
55590;BME280;41452;42.780;23.116;2023-05-12T07:07:38;94703.34;;;6.46;100.00
55590;BME280;41452;42.780;23.116;2023-05-12T07:10:04;94701.75;;;6.45;100.00
55590;BME280;41452;42.780;23.116;2023-05-12T07:12:30;94677.63;;;6.36;100.00
55590;BME280;41452;42.780;23.116;2023-05-12T07:14:56;94705.38;;;6.51;100.00
55590;BME280;41452;42.780;23.116;2023-05-12T07:17:22;94680.88;;;6.45;100.00
55590;BME280;41452;42.780;23.116;2023-05-12T07:19:47;94700.59;;;6.61;100.00
55590;BME280;41452;42.780;23.116;2023-05-12T07:22:13;94698.59;;;6.63;100.00
55590;BME280;41452;42.780;23.116;2023-05-12T07:24:38;94699.34;;;6.57;100.00
55590;BME280;41452;42.780;23.116;2023-05-12T07:27:04;94695.72;;;6.51;100.00
55590;BME280;41452;42.780;23.116;2023-05-12T07:29:30;94702.97;;;6.62;100.00
55590;BME280;41452;42.780;23.116;2023-05-12T07:31:55;94703.78;;;6.70;100.00
55590;BME280;41452;42.780;23.116;2023-05-12T07:34:21;94702.19;;;6.62;100.00
55590;BME280;41452;42.780;23.116;2023-05-12T07:36:46;94706.63;;;6.68;100.00
55590;BME280;41452;42.780;23.116;2023-05-12T07:39:11;94664.41;;;6.51;100.00
55590;BME280;41452;42.780;23.116;2023-05-12T07:41:39;94696.19;;;6.81;100.00
55590;BME280;41452;42.780;23.116;2023-05-12T07:44:05;94675.50;;;6.73;100.00
55590;BME280;41452;42.780;23.116;2023-05-12T07:46:31;94691.19;;;6.80;100.00
55590;BME280;41452;42.780;23.116;2023-05-12T07:48:56;94700.63;;;6.94;100.00
55590;BME280;41452;42.780;23.116;2023-05-12T07:51:22;94697.44;;;6.92;100.00
55590;BME280;41452;42.780;23.116;2023-05-12T07:53:47;94688.00;;;6.98;100.00
55590;BME280;41452;42.780;23.116;2023-05-12T07:56:13;94699.66;;;7.02;100.00
55590;BME280;41452;42.780;23.116;2023-05-12T07:58:38;94683.59;;;6.98;100.00
55590;BME280;41452;42.780;23.116;2023-05-12T08:01:04;94699.88;;;7.07;100.00
55590;BME280;41452;42.780;23.116;2023-05-12T08:03:31;94691.03;;;7.08;100.00
55590;BME280;41452;42.780;23.116;2023-05-12T08:05:59;94709.94;;;7.23;100.00
55590;BME280;41452;42.780;23.116;2023-05-12T08:08:25;94704.91;;;7.29;100.00
55590;BME280;41452;42.780;23.116;2023-05-12T08:10:50;94704.50;;;7.25;100.00
55590;BME280;41452;42.780;23.116;2023-05-12T08:13:15;94666.09;;;6.99;100.00
55590;BME280;41452;42.780;23.116;2023-05-12T08:15:41;94697.88;;;7.36;100.00
55590;BME280;41452;42.780;23.116;2023-05-12T08:18:06;94703.69;;;7.38;100.00
55590;BME280;41452;42.780;23.116;2023-05-12T08:20:31;94672.13;;;7.19;100.00
55590;BME280;41452;42.780;23.116;2023-05-12T08:22:57;94679.78;;;7.28;100.00
55590;BME280;41452;42.780;23.116;2023-05-12T08:25:22;94689.03;;;7.43;100.00
55590;BME280;41452;42.780;23.116;2023-05-12T08:27:48;94661.69;;;7.19;100.00
55590;BME280;41452;42.780;23.116;2023-05-12T08:30:13;94710.53;;;7.52;100.00
55590;BME280;41452;42.780;23.116;2023-05-12T08:32:40;94706.09;;;7.53;100.00
55590;BME280;41452;42.780;23.116;2023-05-12T08:35:05;94709.50;;;7.60;100.00
55590;BME280;41452;42.780;23.116;2023-05-12T08:37:30;94687.00;;;7.52;100.00
55590;BME280;41452;42.780;23.116;2023-05-12T08:39:56;94706.69;;;7.68;100.00
55590;BME280;41452;42.780;23.116;2023-05-12T08:43:24;94703.28;;;7.68;100.00
55590;BME280;41452;42.780;23.116;2023-05-12T08:45:30;94705.47;;;7.77;100.00
55590;BME280;41452;42.780;23.116;2023-05-12T08:47:57;94701.25;;;7.76;100.00
55590;BME280;41452;42.780;23.116;2023-05-12T08:50:24;94677.34;;;7.73;100.00
55590;BME280;41452;42.780;23.116;2023-05-12T08:52:50;94676.72;;;7.84;100.00
55590;BME280;41452;42.780;23.116;2023-05-12T08:55:18;94696.38;;;8.07;100.00
55590;BME280;41452;42.780;23.116;2023-05-12T08:57:44;94698.56;;;8.10;100.00
55590;BME280;41452;42.780;23.116;2023-05-12T09:00:13;94696.56;;;8.12;100.00
55590;BME280;41452;42.780;23.116;2023-05-12T09:02:39;94672.19;;;8.18;100.00
55590;BME280;41452;42.780;23.116;2023-05-12T09:05:08;94689.06;;;8.22;100.00
55590;BME280;41452;42.780;23.116;2023-05-12T09:07:35;94652.47;;;8.15;100.00
55590;BME280;41452;42.780;23.116;2023-05-12T09:10:02;94694.41;;;8.54;100.00
55590;BME280;41452;42.780;23.116;2023-05-12T09:12:31;94679.06;;;8.57;100.00
55590;BME280;41452;42.780;23.116;2023-05-12T09:15:04;94673.47;;;8.54;100.00
55590;BME280;41452;42.780;23.116;2023-05-12T09:17:32;94681.38;;;8.79;100.00
55590;BME280;41452;42.780;23.116;2023-05-12T09:19:57;94679.41;;;8.74;100.00
55590;BME280;41452;42.780;23.116;2023-05-12T09:22:29;94671.91;;;8.85;100.00
55590;BME280;41452;42.780;23.116;2023-05-12T09:24:55;94667.41;;;8.92;100.00
55590;BME280;41452;42.780;23.116;2023-05-12T09:27:26;94675.00;;;9.00;100.00
55590;BME280;41452;42.780;23.116;2023-05-12T09:29:52;94619.34;;;8.80;100.00
55590;BME280;41452;42.780;23.116;2023-05-12T09:32:31;94666.94;;;9.27;100.00
55590;BME280;41452;42.780;23.116;2023-05-12T09:35:04;94671.03;;;9.23;100.00
55590;BME280;41452;42.780;23.116;2023-05-12T09:37:31;94645.81;;;9.22;100.00
55590;BME280;41452;42.780;23.116;2023-05-12T09:40:03;94659.53;;;9.49;100.00
55590;BME280;41452;42.780;23.116;2023-05-12T09:42:31;94649.31;;;9.59;100.00
55590;BME280;41452;42.780;23.116;2023-05-12T09:45:07;94680.31;;;9.69;100.00
55590;BME280;41452;42.780;23.116;2023-05-12T09:47:38;94648.81;;;9.50;100.00
55590;BME280;41452;42.780;23.116;2023-05-12T09:50:06;94656.97;;;9.61;100.00
55590;BME280;41452;42.780;23.116;2023-05-12T09:52:37;94672.31;;;9.82;100.00
55590;BME280;41452;42.780;23.116;2023-05-12T09:55:10;94682.69;;;9.96;100.00
55590;BME280;41452;42.780;23.116;2023-05-12T09:57:41;94654.41;;;9.79;100.00
55590;BME280;41452;42.780;23.116;2023-05-12T10:00:09;94678.53;;;9.88;100.00
55590;BME280;41452;42.780;23.116;2023-05-12T10:02:39;94668.81;;;9.88;100.00
55590;BME280;41452;42.780;23.116;2023-05-12T10:05:16;94678.31;;;10.08;100.00
55590;BME280;41452;42.780;23.116;2023-05-12T10:07:44;94672.28;;;10.07;100.00
55590;BME280;41452;42.780;23.116;2023-05-12T10:10:17;94666.56;;;10.11;100.00
55590;BME280;41452;42.780;23.116;2023-05-12T10:12:42;94676.34;;;10.22;100.00
55590;BME280;41452;42.780;23.116;2023-05-12T10:15:09;94646.75;;;10.15;100.00
55590;BME280;41452;42.780;23.116;2023-05-12T10:17:35;94661.09;;;10.31;100.00
55590;BME280;41452;42.780;23.116;2023-05-12T10:20:02;94655.44;;;10.34;100.00
55590;BME280;41452;42.780;23.116;2023-05-12T10:22:32;94626.84;;;10.25;100.00
55590;BME280;41452;42.780;23.116;2023-05-12T10:25:00;94668.69;;;10.39;100.00
55590;BME280;41452;42.780;23.116;2023-05-12T10:27:26;94660.66;;;10.52;100.00
55590;BME280;41452;42.780;23.116;2023-05-12T10:29:51;94645.91;;;10.51;100.00
55590;BME280;41452;42.780;23.116;2023-05-12T10:32:18;94653.91;;;10.75;100.00
55590;BME280;41452;42.780;23.116;2023-05-12T10:34:44;94653.78;;;10.70;100.00
55590;BME280;41452;42.780;23.116;2023-05-12T10:37:09;94662.50;;;10.82;100.00
55590;BME280;41452;42.780;23.116;2023-05-12T10:39:36;94636.31;;;10.75;98.61
55590;BME280;41452;42.780;23.116;2023-05-12T10:42:06;94656.59;;;10.98;100.00
55590;BME280;41452;42.780;23.116;2023-05-12T10:44:33;94665.50;;;10.97;98.44
55590;BME280;41452;42.780;23.116;2023-05-12T10:46:59;94625.81;;;10.75;97.95
55590;BME280;41452;42.780;23.116;2023-05-12T10:49:32;94660.38;;;11.02;97.75
55590;BME280;41452;42.780;23.116;2023-05-12T10:51:59;94656.38;;;11.12;100.00
55590;BME280;41452;42.780;23.116;2023-05-12T10:54:25;94656.75;;;11.15;95.61
55590;BME280;41452;42.780;23.116;2023-05-12T10:56:51;94646.69;;;11.12;95.74
55590;BME280;41452;42.780;23.116;2023-05-12T10:59:22;94651.03;;;11.18;94.63
55590;BME280;41452;42.780;23.116;2023-05-12T11:02:02;94661.00;;;11.28;95.20
55590;BME280;41452;42.780;23.116;2023-05-12T11:04:41;94659.06;;;11.35;93.77
55590;BME280;41452;42.780;23.116;2023-05-12T11:07:08;94664.47;;;11.40;92.52
55590;BME280;41452;42.780;23.116;2023-05-12T11:09:39;94650.16;;;11.25;95.23
55590;BME280;41452;42.780;23.116;2023-05-12T11:12:06;94647.97;;;11.33;93.61
55590;BME280;41452;42.780;23.116;2023-05-12T11:14:35;94649.13;;;11.37;92.79
55590;BME280;41452;42.780;23.116;2023-05-12T11:17:02;94656.66;;;11.46;93.22
55590;BME280;41452;42.780;23.116;2023-05-12T11:19:28;94658.88;;;11.60;96.45
55590;BME280;41452;42.780;23.116;2023-05-12T11:21:53;94657.81;;;11.61;90.77
55590;BME280;41452;42.780;23.116;2023-05-12T11:24:22;94633.13;;;11.51;90.67
55590;BME280;41452;42.780;23.116;2023-05-12T11:26:47;94653.34;;;11.74;90.22
55590;BME280;41452;42.780;23.116;2023-05-12T11:29:18;94623.75;;;11.55;89.57
55590;BME280;41452;42.780;23.116;2023-05-12T11:31:50;94655.31;;;11.78;91.86
55590;BME280;41452;42.780;23.116;2023-05-12T11:34:23;94656.22;;;11.84;93.57
55590;BME280;41452;42.780;23.116;2023-05-12T11:36:51;94655.44;;;11.95;90.03
55590;BME280;41452;42.780;23.116;2023-05-12T11:39:24;94663.09;;;11.85;87.27
55590;BME280;41452;42.780;23.116;2023-05-12T11:41:50;94643.19;;;11.89;91.39
55590;BME280;41452;42.780;23.116;2023-05-12T11:44:19;94639.75;;;11.89;88.78
55590;BME280;41452;42.780;23.116;2023-05-12T11:47:12;94643.19;;;12.01;87.68
55590;BME280;41452;42.780;23.116;2023-05-12T11:49:52;94648.66;;;12.11;90.62
55590;BME280;41452;42.780;23.116;2023-05-12T11:52:20;94640.31;;;12.03;87.49
55590;BME280;41452;42.780;23.116;2023-05-12T11:54:49;94647.75;;;12.17;85.35
55590;BME280;41452;42.780;23.116;2023-05-12T11:59:56;94636.94;;;12.31;81.18
55590;BME280;41452;42.780;23.116;2023-05-12T12:02:22;94641.97;;;12.32;82.67
55590;BME280;41452;42.780;23.116;2023-05-12T12:04:47;94612.22;;;12.20;86.80
55590;BME280;41452;42.780;23.116;2023-05-12T12:07:13;94641.06;;;12.39;87.09
55590;BME280;41452;42.780;23.116;2023-05-12T12:09:39;94639.38;;;12.21;87.37
55590;BME280;41452;42.780;23.116;2023-05-12T12:12:07;94647.00;;;12.34;81.45
55590;BME280;41452;42.780;23.116;2023-05-12T12:14:34;94623.31;;;12.22;83.70
55590;BME280;41452;42.780;23.116;2023-05-12T12:17:00;94615.03;;;12.13;82.54
55590;BME280;41452;42.780;23.116;2023-05-12T12:19:26;94651.25;;;12.35;81.57
55590;BME280;41452;42.780;23.116;2023-05-12T12:21:56;94652.28;;;12.34;81.21
55590;BME280;41452;42.780;23.116;2023-05-12T12:24:24;94647.34;;;12.38;84.20
55590;BME280;41452;42.780;23.116;2023-05-12T12:26:50;94644.81;;;12.43;80.60
55590;BME280;41452;42.780;23.116;2023-05-12T12:29:15;94644.59;;;12.44;75.64
55590;BME280;41452;42.780;23.116;2023-05-12T12:31:41;94648.34;;;12.48;79.96
55590;BME280;41452;42.780;23.116;2023-05-12T12:34:07;94638.34;;;12.50;79.89
55590;BME280;41452;42.780;23.116;2023-05-12T12:36:33;94641.59;;;12.52;79.56
55590;BME280;41452;42.780;23.116;2023-05-12T12:38:58;94638.13;;;12.52;80.97
55590;BME280;41452;42.780;23.116;2023-05-12T12:41:24;94632.19;;;12.45;77.86
55590;BME280;41452;42.780;23.116;2023-05-12T12:43:50;94634.28;;;12.43;77.67
55590;BME280;41452;42.780;23.116;2023-05-12T12:46:17;94609.38;;;12.22;79.10
55590;BME280;41452;42.780;23.116;2023-05-12T12:48:42;94607.69;;;12.15;76.76
55590;BME280;41452;42.780;23.116;2023-05-12T12:51:08;94621.94;;;12.31;78.43